Weather observations for the past three days for
Limon Municipal Airport
Metric (Imperial)
Date Time (mdt) Wind (kph) Vis. (km) Weather Sky Cond. Temperature (ºC) Relative Humidity Wind Chill (°C) Heat Index (°C) Pressure Precipitation (cm)
Air Dwpt 6 hour altimeter (cm) sea level (mb) 1 hr 3 hr 6 hr
Max. Min.
04 07:55 N 6 16.09 Fair CLR 12.8 -1.7 37% 75.74 1004.6
04 06:55 W 6 16.09 Fair CLR 6.7 0.6 65% 75.74 1004.8
04 05:55 NW 6 16.09 Fair CLR 1.7 -2.2 11.1 1.1 76% 75.74 1005.4
04 04:55 NW 6 16.09 Fair CLR 5.6 -1.7 60% 75.74 1004.6
04 03:55 N 7 16.09 Fair CLR 2.2 -1.7 76% 0 75.77 1005.4
04 02:55 N 7 16.09 Fair CLR 3.3 -1.1 73% 2 75.79 1005.8
04 01:55 N 11 16.09 Fair CLR 6.1 0.6 68% 4 75.82 1005.8
04 00:55 Calm 16.09 A Few Clouds FEW120 8.3 0 56% 75.84 1005.3
03 23:55 S 7 16.09 Fair CLR 11.1 -1.7 22.8 8.9 41% 75.87 1005.1
03 22:55 Calm 16.09 Fair CLR 11.1 -2.2 40% 75.92 1005.9
03 21:55 N 6 16.09 A Few Clouds FEW120 12.8 -2.8 34% 75.92 1006.2
03 20:55 N 17 16.09 Fair CLR 15 -3.3 28% 75.92 1005.5
03 19:55 N 19 16.09 A Few Clouds FEW120 16.1 -5 23% 75.84 1005.4
03 18:55 NW 11 16.09 Fair CLR 20.6 -9.4 12% 75.84 1006.2
03 17:55 Calm 16.09 Fair CLR 21.7 -11.1 23.9 21.7 10% 75.87 1007.5
03 16:55 SW 17 16.09 Fair CLR 22.8 -10.6 10% 75.87 1007.4
03 15:55 N 15 16.09 Fair CLR 22.8 -10.6 10% 75.92 1008.4
03 14:55 Vrbl 6 16.09 Fair CLR 21.7 -10 11% 76.02 1009.6
03 13:55 NW 9 16.09 A Few Clouds FEW120 21.7 -9.4 12% 76.07 1008.9
03 12:55 W 19 G 35 16.09 Fair CLR 22.8 -8.3 12% 76.12 1009.2
03 11:55 W 19 G 37 16.09 Fair CLR 22.8 -7.2 22.8 -0.6 13% 76.2 1010.4
03 10:55 NW 31 G 48 16.09 Fair CLR 22.2 -7.2 13% 76.25 1011.8
03 09:55 NW 26 G 43 16.09 Fair CLR 20.6 -7.2 15% 76.25 1011.0
03 08:55 W 30 G 43 16.09 Fair CLR 20 -6.1 17% 76.28 1011.3
03 07:55 W 17 16.09 Fair CLR 15.6 -1.1 32% 76.28 1011.6
03 06:55 NW 9 16.09 Fair CLR 6.1 -1.1 60% 4 76.28 1012.5
03 05:55 N 11 16.09 Fair CLR -0.6 -3.3 8.3 -1.1 82% -4 76.25 1013.1
03 04:55 N 13 16.09 Fair CLR 0 -2.8 82% -4 76.25 1013.0
03 03:55 NW 9 16.09 Fair CLR -0.6 -2.8 85% -3 76.28 1013.7
03 02:55 N 9 16.09 Fair CLR 0.6 -2.8 78% -2 76.33 1013.8
03 01:55 S 15 16.09 Fair CLR 7.8 -4.4 42% 6 76.35 1012.9
03 00:55 S 6 16.09 Fair CLR 7.8 -4.4 42% 76.4 1014.0
02 23:55 S 6 16.09 Fair CLR 6.7 -3.3 20 3.9 49% 76.43 1014.7
02 22:55 Calm 16.09 Fair CLR 3.9 -2.8 62% 76.4 1015.4
02 21:55 SW 13 16.09 Fair CLR 10.6 -5.6 32% 76.4 1014.2
02 20:55 S 15 16.09 Fair CLR 11.1 -6.1 30% 76.38 1014.3
02 19:55 S 17 16.09 Fair CLR 14.4 -5.6 25% 76.38 1014.5
02 18:55 S 22 16.09 Fair CLR 18.3 -8.3 16% 76.35 1014.4
02 17:55 SW 15 G 31 16.09 Fair CLR 20 -8.3 20.6 16.7 14% 76.38 1015.1
02 16:55 SW 11 G 30 16.09 Fair CLR 20.6 -7.8 14% 76.38 1015.2
02 15:55 S 17 16.09 Fair CLR 20 -8.9 13% 76.43 1016.3
02 14:55 W 15 16.09 Fair CLR 20 -8.3 14% 76.5 1016.9
02 13:55 W 9 16.09 Fair CLR 19.4 -8.9 14% 76.56 1018.0
02 12:55 W 17 16.09 Fair CLR 18.3 -7.8 16% 76.61 1018.6
02 11:55 Vrbl 11 G 30 16.09 Fair CLR 17.2 -7.2 17.8 -2.2 18% 76.66 1019.2
02 10:55 W 11 16.09 Fair CLR 16.1 -7.2 20% 76.68 1019.1
02 09:55 SW 7 16.09 Fair CLR 15 -6.1 23% 76.68 1019.4
02 08:55 W 9 16.09 Fair CLR 12.2 -2.2 37% 76.71 1019.9
02 07:55 NW 9 16.09 Fair CLR 7.2 -1.7 54% 6 76.71 1020.3
02 06:55 N 7 16.09 Fair CLR 2.2 -2.2 73% 0 76.68 1019.9
02 05:55 N 9 16.09 Fair CLR -1.7 -4.4 0.6 -3.9 82% -5 76.66 1020.1
02 04:55 N 9 16.09 Fair CLR -1.7 -4.4 82% -5 76.63 1020.0
02 03:55 N 7 16.09 Fair CLR -3.9 -5 92% -7 76.63 1020.0
02 02:55 N 11 16.09 Fair CLR -1.7 -3.9 85% -5 76.63 1020.0
02 01:55 W 7 16.09 Fair CLR -1.7 -3.9 85% -4 76.63 1020.2
02 00:55 N 7 16.09 Fair CLR -1.1 -3.3 85% -3 76.63 1020.5
01 23:55 Calm 16.09 A Few Clouds FEW110 0.6 -3.3 15 0.6 75% 76.63 1020.1
01 22:55 Calm 16.09 Fair CLR 3.9 -3.9 57% 76.61 1019.1
01 21:55 N 13 16.09 A Few Clouds FEW110 3.3 -2.8 65% 0 76.58 1019.2
01 20:55 N 13 16.09 Fair CLR 5 -2.2 60% 2 76.53 1018.6
01 19:55 N 13 16.09 A Few Clouds FEW090 9.4 -4.4 38% 8 76.48 1017.6
01 18:55 NW 11 16.09 Mostly Cloudy BKN100 13.9 -7.8 22% 76.43 1016.9
01 17:55 N 9 16.09 A Few Clouds FEW095 14.4 -9.4 15.6 11.1 18% 76.43 1016.8
01 16:55 NW 13 G 28 16.09 A Few Clouds FEW090 15 -8.3 19% 76.43 1016.9
01 14:55 NW 20 G 28 16.09 Mostly Cloudy BKN080 13.9 -5.6 26% 76.48 1017.9
01 13:55 NW 9 16.09 Mostly Cloudy BKN075 13.9 -5.6 26% 76.53 1018.1
01 12:55 Calm 16.09 Mostly Cloudy BKN070 12.2 -5 30% 76.53 1018.4
01 11:55 Vrbl 9 16.09 A Few Clouds FEW070 11.7 -4.4 12.8 -1.7 32% 76.58 1019.0
01 10:55 Calm 16.09 Fair CLR 11.1 -5.6 31% 76.61 1018.9
01 09:55 NW 11 16.09 Fair CLR 10 -3.9 38% 9 76.58 1019.1
Date Time (mdt) Wind (kph) Vis. (km) Weather Sky Cond. Air Dwpt Max. Min. Relative Humidity Wind Chill (°C) Heat Index (°C) altimeter (cm) sea level (mb) 1 hr 3 hr 6 hr
6 hour
Temperature (ºC) Pressure Precipitation (cm)